Ailey, GA (30410)

10:02 AM EST on December 22, 2014 (GMT -0500)
Vidalia Municipal | Change Station
CLOSE
Current Station
Airport
Location: Vidalia,
Elevation: 276 ft
Nearby Weather Stations

Elev 276 ft 32.19 °N, 82.37 °W | Updated 7 minutes ago

Overcast
Overcast
46 °F
Feels Like 44 °F
N
5
Wind Variable Wind from NNE

Today
High -- | Low -- °F
--% Chance of Precip.
Yesterday
High -- | Low -- °F
Precip. -- in
7:27 AM 5:29 PM
New Moon, 0% visible
Pressure 30.05 in
Visibility 2.0 miles
Clouds Overcast 200 ft
Windchill 44 °F
Dew Point 46 °F
Humidity 100%
Rainfall 0.00 in
Snow Depth Not available.
UV 1 out of 12
Pollen 1.00 out of 12
Air Quality Not available.
Flu Activity Not available.
METAR KVDI 221455Z AUTO 03004KT 2SM BR OVC002 08/08 A3005 RMK AO2 LTG DSNT SW

More Conditions Fewer Conditions

Pressure 30.05 in
Visibility 2.0 miles
Clouds Overcast 200 ft
Windchill 44 °F
Dew Point 46 °F
Humidity 100%
Rainfall 0.00 in
Snow Depth Not available.
UV 1 out of 12
Pollen 1.00 out of 12
Air Quality Not available.
Flu Activity Not available.
METAR KVDI 221455Z AUTO 03004KT 2SM BR OVC002 08/08 A3005 RMK AO2 LTG DSNT SW

More Conditions Fewer Conditions

10-Day Weather Forecast

Almanac

Astronomy

Dec. 22, 2014 Rise Set
Actual Time
Civil Twilight
Nautical Twilight
Astronomical Twilight
Moon
Length of Visible Light
Length of Day
Tomorrow will be .
, % of the Moon is Illuminated

Today's Extremes

State Highs State Lows

Community

WunderPhotos

Upload Photos

1,779,610 photos uploaded!

WunderBlogs® & News

Nearby

Air Quality

  Air Quality AQ Index Pollutant
Not available.

Snow Depth

Station Depth Elevation

Earthquake Activity

City Distance Mag. Time & Date
Minimum magnitude displayed is 2.5.

Coastal Water Temperatures

Place Temperature

Nearby Weather Stations